createdAt,value
2023-04-20T00:00:44.711Z,99482.09
2023-04-20T00:02:16.979Z,99482.94
2023-04-20T00:03:49.222Z,99480.31
2023-04-20T00:05:21.894Z,99482.84
2023-04-20T00:06:54.498Z,99486.25
2023-04-20T00:08:26.694Z,99481.94
2023-04-20T00:09:58.925Z,99481.03
2023-04-20T00:11:31.534Z,99474.13
2023-04-20T00:13:03.597Z,99478.38
2023-04-20T00:14:35.624Z,99475.78
2023-04-20T00:16:07.944Z,99475.78
2023-04-20T00:17:40.111Z,99472.38
2023-04-20T00:19:12.581Z,99474.97
2023-04-20T00:20:44.658Z,99471.50
2023-04-20T00:22:17.114Z,99474.94
2023-04-20T00:23:49.227Z,99467.19
2023-04-20T00:25:21.764Z,99470.69
2023-04-20T00:26:53.890Z,99468.13
2023-04-20T00:28:25.964Z,99462.03
2023-04-20T00:29:58.233Z,99461.16
2023-04-20T00:31:31.928Z,99460.19
2023-04-20T00:33:04.314Z,99462.75
2023-04-20T00:34:36.507Z,99463.59
2023-04-20T00:36:09.136Z,99456.72
2023-04-20T00:37:41.337Z,99460.22
2023-04-20T00:39:13.499Z,99457.63
2023-04-20T00:40:49.354Z,99453.31
2023-04-20T00:42:21.476Z,99451.66
2023-04-20T00:43:54.668Z,99446.47
2023-04-20T00:45:26.799Z,99446.59
2023-04-20T00:46:58.998Z,99443.22
2023-04-20T00:48:31.108Z,99448.28
2023-04-20T00:50:03.540Z,99444.81
2023-04-20T00:51:35.969Z,99448.34
2023-04-20T00:53:08.635Z,99451.69
2023-04-20T00:54:41.118Z,99446.50
2023-04-20T00:56:16.957Z,99448.13
2023-04-20T00:57:49.735Z,99455.97
2023-04-20T00:59:22.543Z,99449.09
2023-04-20T01:00:54.801Z,99444.03
2023-04-20T01:02:28.007Z,99452.56
2023-04-20T01:04:00.294Z,99445.66
2023-04-20T01:05:32.719Z,99444.75
2023-04-20T01:07:04.838Z,99446.44
2023-04-20T01:08:37.346Z,99445.63
2023-04-20T01:10:10.115Z,99445.63
2023-04-20T01:11:42.364Z,99443.91
2023-04-20T01:13:14.408Z,99444.78
2023-04-20T01:14:46.397Z,99446.50
2023-04-20T01:16:18.474Z,99451.69
2023-04-20T01:17:50.574Z,99443.09
2023-04-20T01:19:23.014Z,99445.75
2023-04-20T01:20:55.031Z,99445.00
2023-04-20T01:22:27.505Z,99448.47
2023-04-20T01:23:59.599Z,99442.56
2023-04-20T01:25:31.689Z,99438.41
2023-04-20T01:27:04.034Z,99443.66
2023-04-20T01:28:36.248Z,99444.59
2023-04-20T01:30:09.084Z,99448.97
2023-04-20T01:31:41.456Z,99450.75
2023-04-20T01:33:13.621Z,99452.53
2023-04-20T01:34:45.892Z,99449.13
2023-04-20T01:36:18.097Z,99450.03
2023-04-20T01:37:50.182Z,99450.03
2023-04-20T01:39:22.269Z,99451.72
2023-04-20T01:40:55.786Z,99446.56
2023-04-20T01:42:27.738Z,99447.34
2023-04-20T01:43:59.955Z,99447.47
2023-04-20T01:45:32.057Z,99440.78
2023-04-20T01:47:04.275Z,99442.56
2023-04-20T01:48:36.519Z,99441.72
2023-04-20T01:50:11.991Z,99441.69
2023-04-20T01:51:44.032Z,99435.75
2023-04-20T01:53:16.009Z,99439.34
2023-04-20T01:54:47.991Z,99439.47
2023-04-20T01:56:20.108Z,99438.63
2023-04-20T01:57:52.264Z,99439.56
2023-04-20T01:59:24.465Z,99427.56
2023-04-20T02:00:56.821Z,99439.56
2023-04-20T02:02:29.056Z,99438.75
2023-04-20T02:04:01.656Z,99437.00
2023-04-20T02:05:33.941Z,99426.72
2023-04-20T02:07:06.104Z,99429.41
2023-04-20T02:08:38.365Z,99432.09
2023-04-20T02:10:10.905Z,99426.94
2023-04-20T02:11:43.089Z,99429.53
2023-04-20T02:13:15.459Z,99426.94
2023-04-20T02:14:47.518Z,99426.97
2023-04-20T02:16:19.610Z,99429.56
2023-04-20T02:17:52.878Z,99428.78
2023-04-20T02:19:25.035Z,99420.97
2023-04-20T02:20:57.165Z,99419.41
2023-04-20T02:22:29.257Z,99424.66
2023-04-20T02:24:01.742Z,99427.28
2023-04-20T02:25:33.857Z,99428.28
2023-04-20T02:27:06.163Z,99431.81
2023-04-20T02:28:38.247Z,99431.06
2023-04-20T02:30:11.012Z,99432.00
2023-04-20T02:31:43.189Z,99430.28
2023-04-20T02:33:15.407Z,99433.81
2023-04-20T02:34:47.488Z,99429.50
2023-04-20T02:36:21.815Z,99426.91
2023-04-20T02:37:53.906Z,99430.44
2023-04-20T05:12:04.641Z,99468.47
2023-04-20T05:13:36.758Z,99476.19
2023-04-20T05:15:09.287Z,99471.84
2023-04-20T05:16:41.697Z,99472.59
2023-04-20T05:18:13.935Z,99477.75
2023-04-20T05:19:46.152Z,99476.81
2023-04-20T05:21:18.243Z,99475.91
2023-04-20T05:22:50.388Z,99474.94
2023-04-20T05:24:22.548Z,99470.56
2023-04-20T05:25:54.724Z,99480.81
2023-04-20T05:27:27.017Z,99478.16
2023-04-20T05:28:59.119Z,99484.09
2023-04-20T05:30:31.818Z,99478.78
2023-04-20T05:32:04.238Z,99485.59
2023-04-20T05:33:39.836Z,99472.47
2023-04-20T05:35:11.923Z,99482.81
2023-04-20T05:36:44.022Z,99475.75
2023-04-20T05:38:16.562Z,99480.78
2023-04-20T05:39:48.812Z,99478.06
2023-04-20T05:41:21.084Z,99482.22
2023-04-20T05:42:53.246Z,99482.97
2023-04-20T05:44:25.315Z,99475.91
2023-04-20T05:45:57.591Z,99483.53
2023-04-20T05:47:29.850Z,99480.00
2023-04-20T05:49:02.020Z,99481.59
2023-04-20T05:50:34.153Z,99480.66
2023-04-20T05:52:06.354Z,99490.03
2023-04-20T05:53:38.557Z,99490.81
2023-04-20T05:55:10.611Z,99489.88
2023-04-20T05:56:42.706Z,99495.78
2023-04-20T05:58:15.295Z,99493.91
2023-04-20T05:59:47.478Z,99490.38
2023-04-20T06:01:19.680Z,99498.84
2023-04-20T06:02:52.166Z,99497.88
2023-04-20T06:04:24.713Z,99495.28
2023-04-20T06:05:57.201Z,99506.38
2023-04-20T06:07:29.343Z,99497.69
2023-04-20T06:09:01.536Z,99498.44
2023-04-20T06:10:34.581Z,99499.25
2023-04-20T06:12:06.926Z,99497.44
2023-04-20T06:13:39.013Z,99505.94
2023-04-20T06:15:11.385Z,99501.50
2023-04-20T06:16:43.484Z,99506.56
2023-04-20T06:18:15.878Z,99503.13
2023-04-20T06:19:48.088Z,99509.16
2023-04-20T06:21:20.574Z,99513.31
2023-04-20T06:22:52.702Z,99502.88
2023-04-20T06:24:24.891Z,99507.97
2023-04-20T06:25:56.993Z,99501.00
2023-04-20T06:27:29.115Z,99508.66
2023-04-20T06:29:01.493Z,99504.22
2023-04-20T06:30:34.412Z,99509.28
2023-04-20T06:32:06.682Z,99506.75
2023-04-20T06:33:39.045Z,99508.34
2023-04-20T06:35:11.207Z,99496.13
2023-04-20T06:36:44.223Z,99501.16
2023-04-20T06:38:16.253Z,99498.50
2023-04-20T06:39:48.415Z,99495.81
2023-04-20T06:41:20.571Z,99507.00
2023-04-20T06:42:52.696Z,99498.31
2023-04-20T06:44:24.827Z,99500.78
2023-04-20T06:45:57.225Z,99503.34
2023-04-20T06:47:32.354Z,99508.44
2023-04-20T06:49:04.577Z,99502.31
2023-04-20T06:50:36.766Z,99503.03
2023-04-20T06:52:08.924Z,99504.66
2023-04-20T06:53:41.165Z,99506.28
2023-04-20T06:55:13.705Z,99508.72
2023-04-20T06:56:45.874Z,99502.53
2023-04-20T06:58:17.945Z,99500.66
2023-04-20T06:59:50.149Z,99506.56
2023-04-20T07:01:22.394Z,99496.94
2023-04-20T07:02:56.754Z,99501.06
2023-04-20T07:04:28.949Z,99497.63
2023-04-20T07:06:01.072Z,99493.19
2023-04-20T07:07:33.153Z,99492.19
2023-04-20T07:09:05.584Z,99492.88
2023-04-20T07:10:37.712Z,99496.22
2023-04-20T07:12:11.738Z,99491.75
2023-04-20T07:13:43.807Z,99498.47
2023-04-20T07:15:16.131Z,99495.72
2023-04-20T07:16:48.404Z,99498.09
2023-04-20T07:18:20.594Z,99494.47
2023-04-20T07:19:55.520Z,99493.41
2023-04-20T07:21:27.819Z,99498.41
2023-04-20T07:22:59.873Z,99496.44
2023-04-20T07:24:32.239Z,99495.31
2023-04-20T07:26:04.317Z,99498.63
2023-04-20T07:27:40.779Z,99492.88
2023-04-20T07:29:12.986Z,99496.81
2023-04-20T07:30:45.120Z,99495.53
2023-04-20T07:32:17.422Z,99494.28
2023-04-20T07:33:49.592Z,99487.00
2023-04-20T07:35:21.924Z,99489.31
2023-04-20T07:36:54.013Z,99495.09
2023-04-20T07:38:26.313Z,99493.09
2023-04-20T07:39:58.429Z,99488.44
2023-04-20T07:41:30.690Z,99494.25
2023-04-20T07:43:02.796Z,99492.19
2023-04-20T07:46:21.060Z,99474.94
2023-04-20T07:47:54.645Z,99479.06
2023-04-20T07:49:26.732Z,99491.09
2023-04-20T07:50:58.763Z,99490.75
2023-04-20T07:52:31.101Z,99491.47
2023-04-20T07:54:03.807Z,99494.09
2023-04-20T07:55:36.330Z,99494.00
2023-04-20T07:57:09.877Z,99489.66
2023-04-20T07:58:42.127Z,99492.38
2023-04-20T08:00:15.514Z,99489.66
2023-04-20T08:01:47.453Z,99495.31
2023-04-20T08:03:19.889Z,99490.09
2023-04-20T08:04:52.584Z,99492.41
2023-04-20T08:06:25.008Z,99489.59
2023-04-20T08:07:57.093Z,99487.50
2023-04-20T08:09:30.000Z,99494.03
2023-04-20T08:11:02.170Z,99499.94
2023-04-20T08:14:22.789Z,99497.56
2023-04-20T08:15:55.026Z,99491.41
2023-04-20T08:17:27.901Z,99482.31
2023-04-20T08:19:02.110Z,99483.09
2023-04-20T08:20:35.212Z,99485.56
2023-04-20T08:22:07.341Z,99474.63
2023-04-20T08:23:39.442Z,99481.63
2023-04-20T08:25:14.618Z,99482.91
2023-04-20T08:26:46.786Z,99479.53
2023-04-20T08:28:32.463Z,99480.16
2023-04-20T08:30:06.600Z,99470.09
2023-04-20T08:31:38.856Z,99468.88
2023-04-20T08:33:11.167Z,99472.13
2023-04-20T08:34:43.280Z,99471.78
2023-04-20T08:36:15.622Z,99470.00
2023-04-20T08:37:47.913Z,99477.69
2023-04-20T08:39:22.144Z,99469.78
2023-04-20T08:40:54.294Z,99466.41
2023-04-20T08:42:26.380Z,99468.25
2023-04-20T08:43:58.562Z,99467.41
2023-04-20T08:45:31.115Z,99465.56
2023-04-20T08:47:03.930Z,99472.34
2023-04-20T08:48:37.522Z,99469.50
2023-04-20T08:50:10.183Z,99475.63
2023-04-20T08:51:43.949Z,99474.44
2023-04-20T08:53:16.257Z,99473.66
2023-04-20T08:54:56.830Z,99470.06
2023-04-20T08:56:37.536Z,99461.69
2023-04-20T08:58:09.874Z,99463.41
2023-04-20T08:59:42.049Z,99472.00
2023-04-20T09:01:17.644Z,99467.31
2023-04-20T09:02:54.651Z,99464.53
2023-04-20T09:04:28.131Z,99466.38
2023-04-20T09:06:00.578Z,99464.59
2023-04-20T09:07:32.932Z,99469.03
2023-04-20T09:09:10.865Z,99470.28
2023-04-20T09:10:44.944Z,99473.78
2023-04-20T09:12:17.110Z,99466.78
2023-04-20T09:14:07.051Z,99460.13
2023-04-20T09:15:39.107Z,99463.50
2023-04-20T09:17:14.838Z,99460.34
2023-04-20T09:18:54.921Z,99477.09
2023-04-20T09:20:29.213Z,99464.25
2023-04-20T09:22:05.709Z,99464.19
2023-04-20T09:23:38.005Z,99465.94
2023-04-20T09:25:14.998Z,99458.34
2023-04-20T09:26:47.673Z,99457.56
2023-04-20T09:28:20.181Z,99455.66
2023-04-20T09:30:02.256Z,99450.88
2023-04-20T09:31:37.182Z,99449.72
2023-04-20T09:33:11.251Z,99445.94
2023-04-20T09:34:47.004Z,99441.91
2023-04-20T09:36:19.340Z,99442.75
2023-04-20T09:37:51.432Z,99445.22
2023-04-20T09:39:24.758Z,99444.59
2023-04-20T09:40:57.019Z,99446.84
2023-04-20T09:42:29.560Z,99446.47
2023-04-20T09:44:02.547Z,99442.09
2023-04-20T09:45:35.148Z,99443.06
2023-04-20T09:47:09.236Z,99440.31
2023-04-20T09:48:41.594Z,99433.16
2023-04-20T09:50:26.610Z,99434.69
2023-04-20T09:52:05.990Z,99431.66
2023-04-20T09:53:38.949Z,99424.56
2023-04-20T09:55:11.584Z,99434.97
2023-04-20T09:56:43.929Z,99437.84
2023-04-20T09:58:18.913Z,99439.28
2023-04-20T09:59:53.397Z,99440.44
2023-04-20T10:01:25.993Z,99430.38
2023-04-20T10:02:58.437Z,99429.28
2023-04-20T10:04:30.941Z,99431.50
2023-04-20T10:06:03.234Z,99422.47
2023-04-20T10:07:35.748Z,99423.47
2023-04-20T10:09:09.286Z,99412.50
2023-04-20T10:10:50.205Z,99416.41
2023-04-20T10:12:22.285Z,99416.13
2023-04-20T10:13:54.575Z,99415.22
2023-04-20T10:15:40.983Z,99418.28
2023-04-20T10:17:13.202Z,99412.34
2023-04-20T10:19:03.515Z,99407.88
2023-04-20T10:20:35.626Z,99416.91
2023-04-20T10:22:09.041Z,99418.09
2023-04-20T10:23:51.767Z,99401.88
2023-04-20T10:25:27.260Z,99409.56
2023-04-20T10:26:59.849Z,99407.53
2023-04-20T10:28:42.294Z,99409.81
2023-04-20T10:30:15.072Z,99413.75
2023-04-20T10:31:47.369Z,99410.31
2023-04-20T10:33:20.023Z,99407.69
2023-04-20T10:35:05.392Z,99405.56
2023-04-20T10:36:38.626Z,99405.50
2023-04-20T10:38:11.954Z,99404.91
2023-04-20T10:39:47.130Z,99406.25
2023-04-20T10:41:19.412Z,99411.47
2023-04-20T10:42:51.553Z,99402.72
2023-04-20T10:44:23.796Z,99393.41
2023-04-20T10:45:56.041Z,99399.75
2023-04-20T10:47:32.787Z,99401.91
2023-04-20T10:49:04.915Z,99408.59
2023-04-20T10:50:37.429Z,99408.59
2023-04-20T10:52:10.152Z,99406.31
2023-04-20T10:53:42.282Z,99408.94
2023-04-20T10:55:24.837Z,99407.41
2023-04-20T10:56:57.582Z,99407.59
2023-04-20T10:58:29.850Z,99410.13
2023-04-20T11:00:16.926Z,99410.44
2023-04-20T11:01:50.006Z,99417.78
2023-04-20T11:03:22.261Z,99406.53
2023-04-20T11:04:56.348Z,99400.09
2023-04-20T11:06:29.108Z,99398.75
2023-04-20T11:08:04.380Z,99405.50
2023-04-20T11:09:38.695Z,99408.47
2023-04-20T11:11:28.085Z,99405.78
2023-04-20T11:13:00.288Z,99408.50
2023-04-20T11:14:37.910Z,99406.59
2023-04-20T11:16:14.059Z,99417.06
2023-04-20T11:17:47.257Z,99410.13
2023-04-20T11:19:27.543Z,99407.84
2023-04-20T11:20:59.741Z,99403.34
2023-04-20T11:22:32.750Z,99408.59
2023-04-20T11:24:06.648Z,99412.75
2023-04-20T11:25:52.072Z,99405.81
2023-04-20T11:27:25.100Z,99408.72
2023-04-20T11:28:57.302Z,99413.94
2023-04-20T11:30:39.179Z,99403.34
2023-04-20T11:32:11.931Z,99406.16
2023-04-20T11:33:44.089Z,99399.97
2023-04-20T11:35:16.602Z,99395.28
2023-04-20T11:36:51.016Z,99388.47
2023-04-20T11:38:30.005Z,99387.97
2023-04-20T11:40:09.934Z,99388.31
2023-04-20T11:41:42.913Z,99389.50
2023-04-20T11:43:15.842Z,99385.00
2023-04-20T11:44:47.937Z,99376.81
2023-04-20T11:46:23.782Z,99384.09
2023-04-20T11:47:56.100Z,99377.28
2023-04-20T11:49:29.434Z,99378.81
2023-04-20T11:51:01.378Z,99376.84
2023-04-20T11:52:33.850Z,99378.28
2023-04-20T11:54:05.979Z,99374.91
2023-04-20T11:55:38.024Z,99370.88
2023-04-20T11:57:10.163Z,99370.97
2023-04-20T11:58:42.338Z,99366.59
2023-04-20T12:01:48.677Z,99354.84
2023-04-20T12:03:21.125Z,99358.28
2023-04-20T12:04:53.496Z,99366.44
2023-04-20T12:06:25.811Z,99354.50
2023-04-20T12:07:57.886Z,99359.16
2023-04-20T12:09:30.892Z,99363.28
2023-04-20T12:11:03.070Z,99357.34
2023-04-20T12:12:35.264Z,99356.69
2023-04-20T12:14:07.390Z,99356.19
2023-04-20T12:15:39.617Z,99349.31
2023-04-20T12:17:12.068Z,99347.25
2023-04-20T12:18:44.260Z,99343.31
2023-04-20T12:20:16.392Z,99352.63
2023-04-20T12:21:48.546Z,99349.47
2023-04-20T12:23:20.801Z,99346.38
2023-04-20T12:24:52.971Z,99355.47
2023-04-20T12:26:34.890Z,99355.16
2023-04-20T12:28:10.435Z,99347.69
2023-04-20T12:29:43.747Z,99348.63
2023-04-20T12:31:16.329Z,99352.38
2023-04-20T12:32:48.627Z,99340.38
2023-04-20T12:34:21.126Z,99350.41
2023-04-20T12:35:53.424Z,99342.41
2023-04-20T12:37:25.636Z,99335.69
2023-04-20T12:38:57.880Z,99335.59
2023-04-20T12:40:30.032Z,99337.28
2023-04-20T12:42:03.000Z,99333.44
2023-04-20T12:43:35.177Z,99336.88
2023-04-20T12:45:07.970Z,99331.56
2023-04-20T12:46:40.249Z,99329.41
2023-04-20T12:48:12.429Z,99329.50
2023-04-20T12:49:44.564Z,99329.13
2023-04-20T12:51:16.884Z,99327.81
2023-04-20T12:52:49.074Z,99317.31
2023-04-20T12:54:21.317Z,99320.81
2023-04-20T12:56:00.827Z,99317.44
2023-04-20T12:57:33.854Z,99324.66
2023-04-20T12:59:05.973Z,99320.44
2023-04-20T13:00:38.084Z,99322.41
2023-04-20T13:02:10.386Z,99308.53
2023-04-20T13:03:42.770Z,99315.34
2023-04-20T13:05:15.119Z,99312.44
2023-04-20T13:06:47.245Z,99308.59
2023-04-20T13:08:22.889Z,99308.53
2023-04-20T13:09:55.036Z,99301.00
2023-04-20T13:11:27.413Z,99298.31
2023-04-20T13:13:00.315Z,99289.69
2023-04-20T13:14:32.779Z,99290.31
2023-04-20T13:16:05.085Z,99296.91
2023-04-20T13:17:37.248Z,99294.66
2023-04-20T13:19:09.423Z,99287.09
2023-04-20T13:20:41.634Z,99292.03
2023-04-20T13:22:17.396Z,99296.81
2023-04-20T13:23:51.485Z,99285.88
2023-04-20T13:25:23.829Z,99284.16
2023-04-20T13:26:59.404Z,99286.03
2023-04-20T13:28:31.586Z,99288.09
2023-04-20T13:30:05.315Z,99273.22
2023-04-20T13:31:37.960Z,99285.19
2023-04-20T13:33:10.891Z,99277.25
2023-04-20T13:34:43.090Z,99288.66
2023-04-20T13:36:15.384Z,99287.06
2023-04-20T13:37:47.622Z,99287.16
2023-04-20T13:39:21.254Z,99282.09
2023-04-20T13:40:53.495Z,99286.69
2023-04-20T13:42:25.984Z,99283.50
2023-04-20T13:44:00.650Z,99286.78
2023-04-20T13:45:32.796Z,99281.91
2023-04-20T13:47:05.054Z,99279.44
2023-04-20T13:48:37.323Z,99282.94
2023-04-20T13:50:10.074Z,99280.88
2023-04-20T13:51:42.227Z,99277.63
2023-04-20T13:53:14.312Z,99266.19
2023-04-20T13:54:46.403Z,99273.97
2023-04-20T13:56:18.816Z,99269.47
2023-04-20T13:57:50.903Z,99262.09
2023-04-20T13:59:23.380Z,99258.78
2023-04-20T14:00:55.542Z,99262.53
2023-04-20T14:02:28.791Z,99263.94
2023-04-20T14:04:01.214Z,99264.59
2023-04-20T14:05:33.491Z,99262.19
2023-04-20T14:07:05.858Z,99266.50
2023-04-20T14:08:37.980Z,99266.66
2023-04-20T14:10:10.447Z,99269.59
2023-04-20T14:11:44.060Z,99264.81
2023-04-20T14:13:16.253Z,99264.44
2023-04-20T14:14:48.827Z,99270.06
2023-04-20T14:16:21.155Z,99269.00
2023-04-20T14:17:53.560Z,99264.13
2023-04-20T14:19:25.934Z,99259.91
2023-04-20T14:20:58.039Z,99263.28
2023-04-20T14:22:36.205Z,99262.88
2023-04-20T14:24:08.441Z,99263.63
2023-04-20T14:25:40.766Z,99269.44
2023-04-20T14:27:12.913Z,99265.13
2023-04-20T14:28:46.236Z,99268.97
2023-04-20T14:30:18.191Z,99266.16
2023-04-20T14:31:50.295Z,99264.59
2023-04-20T14:33:22.482Z,99262.44
2023-04-20T14:34:54.428Z,99257.50
2023-04-20T14:36:26.395Z,99259.63
2023-04-20T14:37:58.554Z,99259.28
2023-04-20T14:39:30.501Z,99257.16
2023-04-20T14:41:02.393Z,99253.31
2023-04-20T14:42:34.307Z,99263.25
2023-04-20T14:44:06.402Z,99263.53
2023-04-20T14:45:39.649Z,99262.06
2023-04-20T14:47:11.730Z,99264.13
2023-04-20T14:48:46.563Z,99263.66
2023-04-20T14:50:18.594Z,99269.38
2023-04-20T14:51:51.057Z,99279.28
2023-04-20T14:53:23.183Z,99283.88
2023-04-20T14:54:55.190Z,99287.16
2023-04-20T14:56:27.222Z,99294.34
2023-04-20T15:58:00.834Z,99328.59
2023-04-20T15:59:33.228Z,99325.91
2023-04-20T16:01:05.627Z,99330.06
2023-04-20T16:02:40.338Z,99327.16
2023-04-20T16:04:14.163Z,99326.91
2023-04-20T16:05:46.490Z,99327.63
2023-04-20T16:07:21.811Z,99330.84
2023-04-20T16:08:55.076Z,99326.44
2023-04-20T16:10:27.896Z,99330.84
2023-04-20T16:12:00.201Z,99326.25
2023-04-20T16:13:32.461Z,99324.41
2023-04-20T16:15:04.972Z,99326.06
2023-04-20T16:16:37.123Z,99321.84
2023-04-20T16:18:09.256Z,99326.16
2023-04-20T16:19:41.927Z,99325.47
2023-04-20T16:21:15.006Z,99330.00
2023-04-20T16:22:47.194Z,99329.16
2023-04-20T16:25:52.475Z,99329.47
2023-04-20T16:27:24.610Z,99344.97
2023-04-20T16:28:56.710Z,99351.97
2023-04-20T16:30:28.853Z,99352.03
2023-04-20T16:32:01.333Z,99355.47
2023-04-20T16:33:33.482Z,99357.47
2023-04-20T16:35:06.119Z,99350.66
2023-04-20T16:36:38.259Z,99353.50
2023-04-20T16:38:11.496Z,99360.63
2023-04-20T16:39:43.937Z,99354.84
2023-04-20T16:41:16.927Z,99358.59
2023-04-20T16:42:49.154Z,99357.75
2023-04-20T16:44:21.694Z,99348.38
2023-04-20T16:45:53.871Z,99355.28
2023-04-20T16:47:26.323Z,99348.38
2023-04-20T16:48:58.508Z,99346.44
2023-04-20T16:50:30.698Z,99345.59
2023-04-20T16:52:02.855Z,99353.50
2023-04-20T16:53:35.501Z,99354.50
2023-04-20T16:55:08.336Z,99351.19
2023-04-20T16:56:41.161Z,99354.78
2023-04-20T16:58:13.427Z,99359.41
2023-04-20T16:59:45.961Z,99358.69
2023-04-20T17:01:18.388Z,99352.91
2023-04-20T17:02:51.029Z,99360.97
2023-04-20T17:04:23.546Z,99358.69
2023-04-20T17:05:56.217Z,99358.81
2023-04-20T17:07:28.868Z,99368.56
2023-04-20T17:09:07.298Z,99361.03
2023-04-20T17:10:39.874Z,99360.47
2023-04-20T17:12:12.244Z,99365.09
2023-04-20T17:13:44.580Z,99366.91
2023-04-20T17:15:16.796Z,99367.03
2023-04-20T17:16:49.104Z,99367.03
2023-04-20T17:18:21.348Z,99367.94
2023-04-20T17:19:53.489Z,99373.25
2023-04-20T17:21:27.336Z,99382.81
2023-04-20T17:22:59.530Z,99372.38
2023-04-20T17:24:31.676Z,99380.28
2023-04-20T17:26:03.868Z,99376.97
2023-04-20T17:27:36.116Z,99376.31
2023-04-20T17:29:08.483Z,99374.78
2023-04-20T17:30:41.750Z,99373.31
2023-04-20T17:32:14.322Z,99372.75
2023-04-20T17:33:46.632Z,99379.91
2023-04-20T17:35:18.839Z,99373.13
2023-04-20T17:36:51.061Z,99375.88
2023-04-20T17:38:23.621Z,99376.88
2023-04-20T17:39:56.254Z,99370.97
2023-04-20T17:41:28.888Z,99379.72
2023-04-20T17:43:02.882Z,99377.19
2023-04-20T17:44:35.155Z,99373.06
2023-04-20T17:46:08.333Z,99378.53
2023-04-20T17:47:40.899Z,99376.97
2023-04-20T17:49:13.125Z,99381.59
2023-04-20T17:50:49.310Z,99370.56
2023-04-20T17:52:22.694Z,99374.38
2023-04-20T17:53:54.647Z,99374.28
2023-04-20T17:55:26.790Z,99379.88
2023-04-20T17:56:58.956Z,99384.41
2023-04-20T17:58:31.058Z,99387.19
2023-04-20T18:00:05.485Z,99390.72
2023-04-20T18:01:37.731Z,99388.22
2023-04-20T18:03:10.443Z,99390.03
2023-04-20T18:04:43.020Z,99388.47
2023-04-20T18:06:15.282Z,99393.97
2023-04-20T18:07:47.498Z,99395.81
2023-04-20T18:09:19.733Z,99396.94
2023-04-20T18:10:51.925Z,99404.88
2023-04-20T18:12:24.074Z,99398.06
2023-04-20T18:13:56.359Z,99397.31
2023-04-20T18:15:28.491Z,99399.13
2023-04-20T18:17:00.743Z,99395.63
2023-04-20T18:18:33.654Z,99400.06
2023-04-20T18:20:06.788Z,99391.50
2023-04-20T18:21:38.936Z,99391.72
2023-04-20T18:23:14.062Z,99403.16
2023-04-20T18:24:46.185Z,99398.22
2023-04-20T18:26:18.395Z,99397.44
2023-04-20T18:27:50.575Z,99399.31
2023-04-20T18:29:22.845Z,99403.78
2023-04-20T18:30:57.042Z,99402.19
2023-04-20T18:32:31.854Z,99398.91
2023-04-20T18:34:03.921Z,99406.59
2023-04-20T18:35:36.190Z,99395.72
2023-04-20T18:37:10.194Z,99404.53
2023-04-20T18:38:42.319Z,99402.94
2023-04-20T18:40:16.269Z,99397.22
2023-04-20T18:41:48.935Z,99403.34
2023-04-20T18:43:21.148Z,99401.75
2023-04-20T18:44:54.034Z,99400.13
2023-04-20T18:46:26.256Z,99402.94
2023-04-20T18:48:01.409Z,99405.72
2023-04-20T18:49:35.329Z,99400.81
2023-04-20T18:51:07.560Z,99400.28
2023-04-20T18:52:39.726Z,99399.69
2023-04-20T18:54:11.767Z,99407.69
2023-04-20T18:55:44.094Z,99406.16
2023-04-20T18:57:16.336Z,99402.19
2023-04-20T18:58:48.537Z,99400.84
2023-04-20T19:00:20.755Z,99405.38
2023-04-20T19:01:53.132Z,99401.41
2023-04-20T19:03:26.248Z,99404.97
2023-04-20T19:04:58.430Z,99402.66
2023-04-20T19:06:31.631Z,99409.72
2023-04-20T19:08:04.111Z,99404.63
2023-04-20T19:09:36.321Z,99411.66
2023-04-20T19:11:08.491Z,99411.66
2023-04-20T19:12:40.927Z,99410.03
2023-04-20T19:14:13.093Z,99417.94
2023-04-20T19:15:45.745Z,99412.94
2023-04-20T19:17:17.832Z,99407.00
2023-04-20T19:18:50.889Z,99416.69
2023-04-20T19:20:24.250Z,99421.13
2023-04-20T19:21:57.878Z,99417.88
2023-04-20T19:23:29.976Z,99421.44
2023-04-20T19:25:02.243Z,99415.56
2023-04-20T19:26:34.377Z,99419.84
2023-04-20T19:28:08.524Z,99424.22
2023-04-20T19:29:41.043Z,99419.97
2023-04-20T19:31:16.380Z,99426.09
2023-04-20T19:32:48.620Z,99422.63
2023-04-20T19:34:21.796Z,99428.72
2023-04-20T19:35:54.161Z,99421.91
2023-04-20T19:37:26.708Z,99423.72
2023-04-20T19:38:59.495Z,99418.72
2023-04-20T19:40:31.822Z,99423.22
2023-04-20T19:42:04.044Z,99424.19
2023-04-20T19:43:36.977Z,99433.75
2023-04-20T19:45:12.138Z,99418.31
2023-04-20T19:46:44.244Z,99428.03
2023-04-20T19:48:16.476Z,99422.09
2023-04-20T19:49:48.963Z,99431.66
2023-04-20T19:51:22.704Z,99427.47
2023-04-20T19:52:54.852Z,99426.69
2023-04-20T19:54:27.342Z,99426.84
2023-04-20T19:55:59.666Z,99420.88
2023-04-20T19:57:32.018Z,99424.38
2023-04-20T19:59:07.044Z,99419.16
2023-04-20T20:00:39.368Z,99413.09
2023-04-20T20:02:11.786Z,99418.28
2023-04-20T20:03:44.319Z,99420.88
2023-04-20T20:05:16.621Z,99421.91
2023-04-20T20:06:51.008Z,99420.47
2023-04-20T20:08:23.310Z,99422.50
2023-04-20T20:09:55.879Z,99427.03
2023-04-20T20:11:28.807Z,99428.94
2023-04-20T20:13:00.975Z,99432.56
2023-04-20T20:14:33.175Z,99435.31
2023-04-20T20:16:05.757Z,99437.94
2023-04-20T20:17:38.009Z,99429.22
2023-04-20T20:19:10.318Z,99429.97
2023-04-20T20:20:44.031Z,99430.81
2023-04-20T20:22:17.059Z,99435.19
2023-04-20T20:23:49.209Z,99438.59
2023-04-20T20:25:21.398Z,99442.94
2023-04-20T20:26:53.514Z,99442.09
2023-04-20T20:28:25.711Z,99435.22
2023-04-20T20:29:57.883Z,99438.69
2023-04-20T20:31:30.163Z,99443.03
2023-04-20T20:33:02.414Z,99439.69
2023-04-20T20:34:34.540Z,99436.50
2023-04-20T20:36:07.288Z,99448.56
2023-04-20T20:37:40.579Z,99440.88
2023-04-20T20:39:14.093Z,99442.78
2023-04-20T20:40:46.376Z,99440.13
2023-04-20T20:42:18.496Z,99442.00
2023-04-20T20:43:50.727Z,99437.78
2023-04-20T20:45:23.826Z,99435.16
2023-04-20T20:46:56.103Z,99444.72
2023-04-20T20:48:28.256Z,99445.53
2023-04-20T20:50:00.403Z,99447.22
2023-04-20T20:51:32.612Z,99444.63
2023-04-20T20:53:04.778Z,99440.28
2023-04-20T20:54:36.893Z,99453.22
2023-04-20T20:56:09.000Z,99450.72
2023-04-20T20:57:41.470Z,99449.78
2023-04-20T20:59:13.546Z,99454.16
2023-04-20T21:00:47.341Z,99453.44
2023-04-20T21:02:19.649Z,99454.38
2023-04-20T21:03:52.098Z,99447.69
2023-04-20T21:05:24.395Z,99452.84
2023-04-20T21:06:56.690Z,99454.53
2023-04-20T21:08:28.841Z,99457.19
2023-04-20T21:10:01.202Z,99454.72
2023-04-20T21:11:33.237Z,99447.00
2023-04-20T21:13:06.274Z,99450.50
2023-04-20T21:14:38.433Z,99452.25
2023-04-20T21:16:13.599Z,99446.25
2023-04-20T21:17:45.720Z,99450.53
2023-04-20T21:19:18.182Z,99457.47
2023-04-20T21:20:50.749Z,99458.41
2023-04-20T21:22:22.944Z,99449.78
2023-04-20T21:23:55.364Z,99449.78
2023-04-20T21:25:27.384Z,99455.00
2023-04-20T21:26:59.554Z,99454.22
2023-04-20T21:28:31.858Z,99455.91
2023-04-20T21:31:52.360Z,99460.22
2023-04-20T21:33:24.362Z,99460.06
2023-04-20T21:34:56.551Z,99467.06
2023-04-20T21:36:28.597Z,99468.81
2023-04-20T21:38:00.668Z,99457.66
2023-04-20T21:39:32.998Z,99469.72
2023-04-20T21:41:05.398Z,99465.47
2023-04-20T21:42:37.493Z,99462.84
2023-04-20T21:44:09.615Z,99459.41
2023-04-20T21:45:41.769Z,99462.00
2023-04-20T21:47:13.926Z,99468.88
2023-04-20T21:48:46.027Z,99462.00
2023-04-20T21:50:18.942Z,99461.09
2023-04-20T21:51:51.248Z,99463.75
2023-04-20T21:53:23.407Z,99462.88